createdAt,value
2022-12-14T00:00:41.974Z,-4.12
2022-12-14T00:03:10.807Z,-4.15
2022-12-14T00:05:39.399Z,-4.18
2022-12-14T00:08:08.294Z,-4.19
2022-12-14T00:10:38.044Z,-4.23
2022-12-14T00:13:06.860Z,-4.23
2022-12-14T00:15:37.338Z,-4.19
2022-12-14T00:18:07.349Z,-4.18
2022-12-14T00:20:35.597Z,-4.16
2022-12-14T00:23:04.491Z,-4.11
2022-12-14T00:25:33.049Z,-4.05
2022-12-14T00:28:01.441Z,-4.10
2022-12-14T00:30:29.800Z,-4.18
2022-12-14T00:32:58.161Z,-4.21
2022-12-14T00:35:27.996Z,-4.23
2022-12-14T00:37:59.164Z,-4.15
2022-12-14T00:40:29.174Z,-4.16
2022-12-14T00:42:57.523Z,-4.19
2022-12-14T00:45:26.039Z,-4.25
2022-12-14T00:47:54.894Z,-4.21
2022-12-14T00:50:25.393Z,-4.23
2022-12-14T00:52:58.324Z,-4.22
2022-12-14T00:55:26.981Z,-4.16
2022-12-14T00:57:55.419Z,-4.20
2022-12-14T01:00:24.242Z,-4.16
2022-12-14T01:02:52.846Z,-4.09
2022-12-14T01:05:21.348Z,-4.05
2022-12-14T01:07:49.862Z,-4.10
2022-12-14T01:10:19.628Z,-4.09
2022-12-14T01:12:48.007Z,-4.16
2022-12-14T01:15:16.757Z,-4.10
2022-12-14T01:17:45.207Z,-4.07
2022-12-14T01:20:14.113Z,-4.10
2022-12-14T01:22:43.006Z,-4.14
2022-12-14T01:25:11.745Z,-4.10
2022-12-14T01:27:42.075Z,-4.20
2022-12-14T01:30:10.623Z,-4.26
2022-12-14T01:32:38.882Z,-4.25
2022-12-14T01:35:07.294Z,-4.30
2022-12-14T01:37:35.620Z,-4.26
2022-12-14T01:40:04.176Z,-4.32
2022-12-14T01:42:35.224Z,-4.33
2022-12-14T01:45:05.539Z,-4.39
2022-12-14T01:47:39.027Z,-4.42
2022-12-14T01:50:11.515Z,-4.35
2022-12-14T01:52:41.429Z,-4.37
2022-12-14T01:55:11.737Z,-4.37
2022-12-14T01:57:43.417Z,-4.36
2022-12-14T02:00:14.433Z,-4.39
2022-12-14T02:02:48.328Z,-4.41
2022-12-14T02:05:17.989Z,-4.44
2022-12-14T02:07:49.158Z,-4.49
2022-12-14T02:10:18.466Z,-4.55
2022-12-14T02:12:49.505Z,-4.59
2022-12-14T02:15:19.933Z,-4.52
2022-12-14T02:17:48.649Z,-4.60
2022-12-14T02:20:17.822Z,-4.60
2022-12-14T02:23:12.176Z,-4.57
2022-12-14T02:25:52.407Z,-4.67
2022-12-14T02:28:34.501Z,-4.74
2022-12-14T02:31:08.734Z,-4.66
2022-12-14T02:33:42.001Z,-4.73
2022-12-14T02:36:14.687Z,-4.81
2022-12-14T02:38:47.603Z,-4.85
2022-12-14T02:41:18.333Z,-4.87
2022-12-14T02:43:50.856Z,-4.96
2022-12-14T02:46:25.539Z,-5.03
2022-12-14T02:48:57.895Z,-5.03
2022-12-14T02:51:32.358Z,-5.04
2022-12-14T02:54:02.189Z,-5.06
2022-12-14T02:56:34.854Z,-5.03
2022-12-14T02:59:04.838Z,-5.09
2022-12-14T03:01:36.760Z,-5.05
2022-12-14T03:04:05.880Z,-4.86
2022-12-14T03:06:34.118Z,-4.88
2022-12-14T03:09:05.928Z,-4.84
2022-12-14T03:11:37.717Z,-4.74
2022-12-14T03:14:07.768Z,-4.70
2022-12-14T03:16:42.236Z,-4.65
2022-12-14T03:19:15.362Z,-4.63
2022-12-14T03:21:47.403Z,-4.63
2022-12-14T03:24:17.648Z,-4.57
2022-12-14T03:26:48.155Z,-4.59
2022-12-14T03:29:21.605Z,-4.61
2022-12-14T03:31:54.190Z,-4.61
2022-12-14T03:34:26.887Z,-4.65
2022-12-14T03:36:57.776Z,-4.68
2022-12-14T03:39:29.383Z,-4.71
2022-12-14T03:42:01.086Z,-4.71
2022-12-14T03:44:35.565Z,-4.78
2022-12-14T03:47:11.803Z,-4.82
2022-12-14T03:49:49.234Z,-4.72
2022-12-14T03:52:22.846Z,-4.58
2022-12-14T03:54:54.979Z,-4.60
2022-12-14T03:57:33.679Z,-4.67
2022-12-14T04:00:04.220Z,-4.53
2022-12-14T04:02:40.885Z,-4.58
2022-12-14T04:05:17.192Z,-4.65
2022-12-14T04:07:50.168Z,-4.60
2022-12-14T04:10:34.768Z,-4.63
2022-12-14T04:13:25.667Z,-4.65
2022-12-14T04:16:13.608Z,-4.50
2022-12-14T04:19:00.300Z,-4.56
2022-12-14T04:21:32.753Z,-4.55
2022-12-14T04:24:20.539Z,-4.56
2022-12-14T04:26:52.194Z,-4.52
2022-12-14T04:29:44.210Z,-4.49
2022-12-14T04:32:18.301Z,-4.50
2022-12-14T04:34:50.967Z,-4.56
2022-12-14T04:37:21.295Z,-4.50
2022-12-14T04:39:52.163Z,-4.42
2022-12-14T04:42:24.734Z,-4.50
2022-12-14T04:44:54.610Z,-4.55
2022-12-14T04:47:24.895Z,-4.57
2022-12-14T04:49:57.284Z,-4.52
2022-12-14T04:52:27.532Z,-4.48
2022-12-14T04:54:58.975Z,-4.49
2022-12-14T04:57:32.268Z,-4.47
2022-12-14T05:00:02.596Z,-4.53
2022-12-14T05:02:36.539Z,-4.56
2022-12-14T05:05:12.380Z,-4.58
2022-12-14T05:07:48.698Z,-4.61
2022-12-14T05:10:19.361Z,-4.66
2022-12-14T05:12:53.303Z,-4.63
2022-12-14T05:15:24.916Z,-4.62
2022-12-14T05:17:56.622Z,-4.64
2022-12-14T05:20:26.613Z,-4.59
2022-12-14T05:22:55.683Z,-4.51
2022-12-14T05:25:24.280Z,-4.57
2022-12-14T05:27:52.713Z,-4.59
2022-12-14T05:30:21.293Z,-4.60
2022-12-14T05:32:52.184Z,-4.56
2022-12-14T05:35:20.758Z,-4.62
2022-12-14T05:38:00.082Z,-4.63
2022-12-14T05:40:28.709Z,-4.59
2022-12-14T05:43:04.837Z,-4.61
2022-12-14T05:45:33.939Z,-4.58
2022-12-14T05:48:02.340Z,-4.51
2022-12-14T05:50:31.343Z,-4.59
2022-12-14T05:53:01.425Z,-4.54
2022-12-14T05:55:29.760Z,-4.55
2022-12-14T05:57:58.417Z,-4.55
2022-12-14T06:00:27.260Z,-4.53
2022-12-14T06:02:55.743Z,-4.45
2022-12-14T06:05:24.042Z,-4.40
2022-12-14T06:07:52.419Z,-4.51
2022-12-14T06:10:22.279Z,-4.41
2022-12-14T06:12:50.532Z,-4.38
2022-12-14T06:15:18.879Z,-4.41
2022-12-14T06:17:47.687Z,-4.46
2022-12-14T06:20:16.164Z,-4.49
2022-12-14T06:22:47.711Z,-4.39
2022-12-14T06:25:16.317Z,-4.38
2022-12-14T06:27:45.893Z,-4.32
2022-12-14T06:30:14.598Z,-4.09
2022-12-14T06:32:42.865Z,-4.12
2022-12-14T06:35:11.117Z,-4.14
2022-12-14T06:37:39.336Z,-4.19
2022-12-14T06:40:08.295Z,-4.23
2022-12-14T06:42:36.758Z,-4.24
2022-12-14T06:45:07.506Z,-4.26
2022-12-14T06:47:35.983Z,-4.28
2022-12-14T06:50:04.404Z,-4.22
2022-12-14T06:52:32.724Z,-4.27
2022-12-14T06:55:01.127Z,-4.20
2022-12-14T06:57:29.485Z,-4.31
2022-12-14T07:00:00.128Z,-4.32
2022-12-14T07:02:30.679Z,-4.32
2022-12-14T07:04:59.657Z,-4.21
2022-12-14T07:07:27.941Z,-4.26
2022-12-14T07:09:56.538Z,-4.31
2022-12-14T07:12:24.965Z,-4.27
2022-12-14T07:14:53.625Z,-4.23
2022-12-14T07:17:24.652Z,-4.29
2022-12-14T07:19:54.688Z,-4.28
2022-12-14T07:22:23.254Z,-4.15
2022-12-14T07:24:51.862Z,-4.16
2022-12-14T07:27:20.751Z,-4.17
2022-12-14T07:29:54.900Z,-4.20
2022-12-14T07:32:23.826Z,-4.18
2022-12-14T07:34:52.422Z,-4.19
2022-12-14T07:37:22.377Z,-4.10
2022-12-14T07:39:50.796Z,-4.14
2022-12-14T07:42:19.226Z,-4.13
2022-12-14T07:44:47.783Z,-4.07
2022-12-14T07:47:16.789Z,-4.09
2022-12-14T07:49:45.398Z,-4.11
2022-12-14T07:52:21.467Z,-4.08
2022-12-14T07:54:51.475Z,-4.11
2022-12-14T07:57:19.852Z,-4.12
2022-12-14T07:59:52.959Z,-4.10
2022-12-14T08:02:26.185Z,-3.98
2022-12-14T08:04:55.050Z,-3.90
2022-12-14T08:07:32.027Z,-3.93
2022-12-14T08:10:06.315Z,-3.78
2022-12-14T08:12:35.618Z,-3.75
2022-12-14T08:15:06.224Z,-3.81
2022-12-14T08:17:34.867Z,-3.86
2022-12-14T08:20:04.049Z,-3.84
2022-12-14T08:22:32.536Z,-3.77
2022-12-14T08:25:00.959Z,-3.81
2022-12-14T08:27:32.255Z,-3.82
2022-12-14T08:30:00.764Z,-3.75
2022-12-14T08:32:34.138Z,-3.60
2022-12-14T08:35:02.956Z,-3.54
2022-12-14T08:37:31.198Z,-3.53
2022-12-14T08:39:59.513Z,-3.56
2022-12-14T08:42:27.904Z,-3.58
2022-12-14T08:44:57.638Z,-3.53
2022-12-14T08:47:26.180Z,-3.52
2022-12-14T08:49:54.880Z,-3.48
2022-12-14T08:52:23.193Z,-3.47
2022-12-14T08:54:51.593Z,-3.37
2022-12-14T08:57:19.867Z,-3.42
2022-12-14T09:00:03.791Z,-3.41
2022-12-14T09:02:34.006Z,-3.32
2022-12-14T09:05:02.392Z,-3.22
2022-12-14T09:07:30.692Z,-3.16
2022-12-14T09:09:58.991Z,-3.14
2022-12-14T09:12:27.456Z,-3.07
2022-12-14T09:14:55.958Z,-2.93
2022-12-14T09:17:24.281Z,-2.90
2022-12-14T09:19:54.029Z,-2.67
2022-12-14T09:22:22.349Z,-2.57
2022-12-14T09:24:52.209Z,-2.39
2022-12-14T09:27:22.371Z,-2.29
2022-12-14T09:29:50.732Z,-2.33
2022-12-14T09:32:19.408Z,-2.25
2022-12-14T09:34:47.748Z,-2.11
2022-12-14T09:37:17.419Z,-1.96
2022-12-14T09:39:46.116Z,-1.83
2022-12-14T09:42:26.504Z,-1.87
2022-12-14T09:44:58.591Z,-2.08
2022-12-14T09:47:30.660Z,-2.28
2022-12-14T09:50:01.834Z,-2.44
2022-12-14T09:52:36.493Z,-2.39
2022-12-14T09:55:06.668Z,-2.31
2022-12-14T09:57:37.917Z,-2.20
2022-12-14T10:00:12.633Z,-2.10
2022-12-14T10:02:48.853Z,-2.04
2022-12-14T10:05:25.554Z,-1.93
2022-12-14T10:08:02.642Z,-1.91
2022-12-14T10:10:33.889Z,-1.78
2022-12-14T10:13:07.511Z,-1.46
2022-12-14T10:15:41.219Z,-1.06
2022-12-14T10:18:59.412Z,-0.67
2022-12-14T10:21:36.839Z,0.42
2022-12-14T10:24:08.050Z,1.49
2022-12-14T10:26:39.243Z,2.26
2022-12-14T10:29:14.608Z,2.81
2022-12-14T10:31:49.026Z,3.08
2022-12-14T10:34:19.586Z,1.86
2022-12-14T10:36:53.106Z,1.25
2022-12-14T10:39:27.563Z,1.20
2022-12-14T10:41:59.130Z,0.82
2022-12-14T10:44:35.582Z,0.83
2022-12-14T10:47:11.782Z,-0.11
2022-12-14T10:49:47.190Z,-0.36
2022-12-14T10:52:18.821Z,-0.69
2022-12-14T10:54:50.767Z,-0.93
2022-12-14T10:57:19.661Z,-0.95
2022-12-14T11:00:05.545Z,-1.03
2022-12-14T11:02:37.844Z,-1.07
2022-12-14T11:05:17.804Z,-1.09
2022-12-14T11:07:49.668Z,-1.28
2022-12-14T11:10:20.661Z,-1.26
2022-12-14T11:12:56.033Z,-1.25
2022-12-14T11:15:27.013Z,-1.22
2022-12-14T11:18:00.916Z,-1.13
2022-12-14T11:20:29.548Z,-0.98
2022-12-14T11:22:58.970Z,-0.94
2022-12-14T11:25:31.002Z,-0.84
2022-12-14T11:27:59.952Z,-0.77
2022-12-14T11:30:29.012Z,-0.82
2022-12-14T11:32:57.523Z,-0.96
2022-12-14T11:35:25.848Z,-0.89
2022-12-14T11:37:59.086Z,-0.77
2022-12-14T11:40:30.841Z,-0.66
2022-12-14T11:43:02.629Z,-0.49
2022-12-14T11:45:32.759Z,-0.46
2022-12-14T11:48:20.985Z,-0.42
2022-12-14T11:50:51.100Z,-0.32
2022-12-14T11:53:20.309Z,-0.25
2022-12-14T11:55:53.499Z,-0.24
2022-12-14T11:58:23.699Z,-0.16
2022-12-14T12:00:53.464Z,0.11
2022-12-14T12:03:24.816Z,0.42
2022-12-14T12:05:54.993Z,0.68
2022-12-14T12:08:26.157Z,1.28
2022-12-14T12:11:01.797Z,1.78
2022-12-14T12:13:32.309Z,3.00
2022-12-14T12:16:01.649Z,3.43
2022-12-14T12:18:34.025Z,3.61
2022-12-14T12:21:06.939Z,3.40
2022-12-14T12:23:38.968Z,2.90
2022-12-14T12:26:12.825Z,2.71
2022-12-14T12:28:44.862Z,2.60
2022-12-14T12:31:17.717Z,2.41
2022-12-14T12:33:49.580Z,2.10
2022-12-14T12:36:24.122Z,1.80
2022-12-14T12:38:57.839Z,1.42
2022-12-14T12:41:31.156Z,0.96
2022-12-14T12:44:01.908Z,0.46
2022-12-14T12:46:31.920Z,0.11
2022-12-14T12:49:04.816Z,-0.22
2022-12-14T12:51:36.201Z,-0.45
2022-12-14T12:54:08.373Z,-0.62
2022-12-14T12:56:43.350Z,-0.75
2022-12-14T12:59:16.538Z,-0.85
2022-12-14T13:01:48.728Z,-0.99
2022-12-14T13:04:25.672Z,-1.16
2022-12-14T13:06:55.818Z,-1.23
2022-12-14T13:09:31.010Z,-1.25
2022-12-14T13:12:01.603Z,-1.23
2022-12-14T13:14:33.200Z,-1.28
2022-12-14T13:17:03.981Z,-1.18
2022-12-14T13:19:54.861Z,-1.27
2022-12-14T13:22:26.815Z,-1.15
2022-12-14T13:24:59.498Z,-1.18
2022-12-14T13:27:43.444Z,-1.36
2022-12-14T13:30:26.259Z,-1.48
2022-12-14T13:33:05.759Z,-1.54
2022-12-14T13:35:40.633Z,-1.42
2022-12-14T13:38:20.659Z,-1.43
2022-12-14T13:41:03.266Z,-1.35
2022-12-14T13:43:52.815Z,-1.38
2022-12-14T13:46:23.772Z,-1.48
2022-12-14T13:48:54.062Z,-1.39
2022-12-14T13:51:28.178Z,-1.40
2022-12-14T13:53:59.200Z,-1.43
2022-12-14T13:56:33.331Z,-1.43
2022-12-14T13:59:04.028Z,-1.44
2022-12-14T14:01:50.890Z,-0.31
2022-12-14T14:04:21.602Z,2.07
2022-12-14T14:06:50.485Z,3.04
2022-12-14T14:09:37.287Z,1.96
2022-12-14T14:12:25.824Z,1.12
2022-12-14T14:14:58.326Z,0.32
2022-12-14T14:17:29.095Z,-0.20
2022-12-14T14:19:58.981Z,-0.58
2022-12-14T14:22:28.170Z,-0.85
2022-12-14T14:24:58.140Z,-1.05
2022-12-14T14:27:27.563Z,-1.21
2022-12-14T14:29:56.825Z,-1.21
2022-12-14T14:32:33.197Z,-1.47
2022-12-14T14:35:04.031Z,-1.70
2022-12-14T14:37:33.564Z,-1.79
2022-12-14T14:40:16.686Z,-1.85
2022-12-14T14:42:52.463Z,-1.86
2022-12-14T14:45:28.194Z,-1.99
2022-12-14T14:47:57.463Z,-2.18
2022-12-14T14:50:30.411Z,-2.24
2022-12-14T14:53:16.928Z,-2.42
2022-12-14T14:56:05.041Z,-2.56
2022-12-14T14:58:38.393Z,-2.68
2022-12-14T15:01:19.162Z,-2.82
2022-12-14T15:03:51.832Z,-2.71
2022-12-14T15:06:24.173Z,-2.84
2022-12-14T15:08:56.892Z,-2.99
2022-12-14T15:11:26.722Z,-3.10
2022-12-14T15:13:59.290Z,-3.18
2022-12-14T15:16:33.120Z,-3.25
2022-12-14T15:19:33.814Z,-3.32
2022-12-14T15:22:06.286Z,-3.41
2022-12-14T15:24:38.438Z,-3.44
2022-12-14T15:27:12.675Z,-3.58
2022-12-14T15:29:41.346Z,-3.68
2022-12-14T15:32:16.162Z,-3.74
2022-12-14T15:34:50.004Z,-3.78
2022-12-14T15:37:25.139Z,-3.90
2022-12-14T15:40:03.166Z,-3.98
2022-12-14T15:42:31.633Z,-4.04
2022-12-14T15:45:03.404Z,-4.13
2022-12-14T15:47:33.453Z,-4.13
2022-12-14T15:50:16.647Z,-4.15
2022-12-14T15:52:47.130Z,-4.09
2022-12-14T15:55:23.741Z,-4.14
2022-12-14T15:57:52.968Z,-4.20
2022-12-14T16:00:21.360Z,-4.27
2022-12-14T16:02:49.873Z,-4.29
2022-12-14T16:05:20.262Z,-4.33
2022-12-14T16:07:52.556Z,-4.37
2022-12-14T16:10:24.041Z,-4.44
2022-12-14T16:12:54.865Z,-4.43
2022-12-14T16:15:24.906Z,-4.45
2022-12-14T16:18:00.946Z,-4.51
2022-12-14T16:20:31.814Z,-4.61
2022-12-14T16:23:03.275Z,-4.62
2022-12-14T16:25:33.435Z,-4.68
2022-12-14T16:28:19.890Z,-4.70
2022-12-14T16:30:55.581Z,-4.72
2022-12-14T16:33:24.432Z,-4.77
2022-12-14T16:36:00.914Z,-4.82
2022-12-14T16:38:31.224Z,-4.78
2022-12-14T16:41:00.436Z,-4.87
2022-12-14T16:43:34.041Z,-4.93
2022-12-14T16:46:20.711Z,-4.96
2022-12-14T16:49:04.030Z,-5.01
2022-12-14T16:54:25.971Z,-4.82
2022-12-14T16:56:59.493Z,-4.89
2022-12-14T16:59:29.634Z,-4.91
2022-12-14T17:01:58.247Z,-4.99
2022-12-14T17:04:32.702Z,-4.99
2022-12-14T17:07:01.364Z,-4.99
2022-12-14T17:09:33.880Z,-5.02
2022-12-14T17:12:03.675Z,-4.98
2022-12-14T17:14:32.233Z,-5.01
2022-12-14T17:17:02.324Z,-5.09
2022-12-14T17:19:34.765Z,-5.11
2022-12-14T17:22:06.107Z,-5.09
2022-12-14T17:24:38.183Z,-5.18
2022-12-14T17:27:06.757Z,-5.24
2022-12-14T17:29:37.127Z,-5.28
2022-12-14T17:32:05.727Z,-5.36
2022-12-14T17:34:34.220Z,-5.37
2022-12-14T17:37:02.493Z,-5.36
2022-12-14T17:39:52.874Z,-5.38
2022-12-14T17:42:23.505Z,-5.38
2022-12-14T17:44:53.576Z,-5.40
2022-12-14T17:47:22.529Z,-5.48
2022-12-14T17:49:50.808Z,-5.57
2022-12-14T17:52:20.807Z,-5.62
2022-12-14T17:54:49.370Z,-5.65
2022-12-14T17:57:18.607Z,-5.70
2022-12-14T17:59:48.928Z,-5.71
2022-12-14T18:02:26.282Z,-5.69
2022-12-14T18:04:55.205Z,-5.71
2022-12-14T18:07:23.515Z,-5.71
2022-12-14T18:09:53.372Z,-5.70
2022-12-14T18:12:25.763Z,-5.76
2022-12-14T18:14:55.491Z,-5.82
2022-12-14T18:17:24.076Z,-5.96
2022-12-14T18:19:52.377Z,-5.86
2022-12-14T18:22:23.286Z,-5.93
2022-12-14T18:24:54.796Z,-5.91
2022-12-14T18:27:23.030Z,-5.88
2022-12-14T18:29:51.364Z,-5.99
2022-12-14T18:32:21.049Z,-5.91
2022-12-14T18:34:49.349Z,-5.96
2022-12-14T18:37:23.229Z,-6.06
2022-12-14T18:39:53.089Z,-6.12
2022-12-14T18:42:22.731Z,-6.08
2022-12-14T18:44:52.064Z,-6.15
2022-12-14T18:47:41.088Z,-6.27
2022-12-14T18:50:10.735Z,-6.25
2022-12-14T18:52:38.978Z,-6.28
2022-12-14T18:55:08.068Z,-6.31
2022-12-14T18:57:36.342Z,-6.38
2022-12-14T19:00:05.257Z,-6.38
2022-12-14T19:02:35.646Z,-6.41
2022-12-14T19:05:04.412Z,-6.47
2022-12-14T19:07:33.210Z,-6.53
2022-12-14T19:10:01.708Z,-6.51
2022-12-14T19:12:30.106Z,-6.54
2022-12-14T19:14:58.720Z,-6.62
2022-12-14T19:17:26.986Z,-6.48
2022-12-14T19:19:56.773Z,-6.53
2022-12-14T19:22:27.298Z,-6.62
2022-12-14T19:24:55.907Z,-6.76
2022-12-14T19:27:50.844Z,-6.80
2022-12-14T19:30:14.667Z,-6.83
2022-12-14T19:32:43.428Z,-6.80
2022-12-14T19:35:17.847Z,-6.76
2022-12-14T19:37:46.543Z,-6.90
2022-12-14T19:40:15.065Z,-6.89
2022-12-14T19:42:43.684Z,-6.96
2022-12-14T19:45:12.334Z,-7.02
2022-12-14T19:47:41.003Z,-7.05
2022-12-14T19:50:09.589Z,-7.06
2022-12-14T19:52:39.192Z,-7.01
2022-12-14T19:55:08.072Z,-7.05
2022-12-14T19:57:36.563Z,-7.00
2022-12-14T20:00:05.746Z,-7.02
2022-12-14T20:02:34.264Z,-7.06
2022-12-14T20:05:02.787Z,-7.05
2022-12-14T20:07:31.249Z,-7.14
2022-12-14T20:10:00.978Z,-7.21
2022-12-14T20:12:32.429Z,-7.22
2022-12-14T20:15:01.118Z,-7.22
2022-12-14T20:17:29.526Z,-7.30
2022-12-14T20:19:59.305Z,-7.25
2022-12-14T20:22:27.921Z,-7.30
2022-12-14T20:24:56.276Z,-7.31
2022-12-14T20:27:26.383Z,-7.31
2022-12-14T20:29:55.043Z,-7.30
2022-12-14T20:32:23.751Z,-7.33
2022-12-14T20:34:52.163Z,-7.34
2022-12-14T20:37:21.548Z,-7.36
2022-12-14T20:39:50.330Z,-7.40
2022-12-14T20:42:21.443Z,-7.33
2022-12-14T20:44:51.543Z,-7.31
2022-12-14T20:47:19.935Z,-7.29
2022-12-14T20:49:48.249Z,-7.34
2022-12-14T20:52:17.170Z,-7.31
2022-12-14T20:54:45.455Z,-7.35
2022-12-14T20:57:14.289Z,-7.35
2022-12-14T20:59:42.627Z,-7.47
2022-12-14T21:02:16.920Z,-7.51
2022-12-14T21:04:45.731Z,-7.60
2022-12-14T21:07:14.023Z,-7.70
2022-12-14T21:09:42.519Z,-7.66
2022-12-14T21:12:23.503Z,-7.63
2022-12-14T21:14:53.038Z,-7.62
2022-12-14T21:17:23.891Z,-7.59
2022-12-14T21:19:55.878Z,-7.62
2022-12-14T21:22:25.157Z,-7.66
2022-12-14T21:25:09.031Z,-7.70
2022-12-14T21:27:42.992Z,-7.68
2022-12-14T21:30:12.416Z,-7.67
2022-12-14T21:32:42.128Z,-7.64
2022-12-14T21:35:10.678Z,-7.66
2022-12-14T21:37:39.741Z,-7.69
2022-12-14T21:40:29.102Z,-7.73
2022-12-14T21:42:56.825Z,-7.76
2022-12-14T21:45:25.430Z,-7.75
2022-12-14T21:47:57.714Z,-7.76
2022-12-14T21:50:26.154Z,-7.68
2022-12-14T21:52:54.525Z,-7.72
2022-12-14T21:55:23.252Z,-7.77
2022-12-14T21:58:11.625Z,-7.80
2022-12-14T22:00:40.231Z,-7.76
2022-12-14T22:03:10.073Z,-7.79
2022-12-14T22:05:39.162Z,-7.88
2022-12-14T22:08:07.593Z,-7.86
2022-12-14T22:10:35.833Z,-7.82
2022-12-14T22:13:04.231Z,-7.73
2022-12-14T22:15:32.789Z,-7.73
2022-12-14T22:18:01.032Z,-7.83
2022-12-14T22:20:30.694Z,-7.78
2022-12-14T22:22:59.996Z,-7.74
2022-12-14T22:25:28.434Z,-7.73
2022-12-14T22:27:57.373Z,-7.75
2022-12-14T22:30:31.651Z,-7.76
2022-12-14T22:33:00.659Z,-7.81
2022-12-14T22:35:28.903Z,-7.83
2022-12-14T22:37:59.845Z,-7.87
2022-12-14T22:40:28.472Z,-7.87
2022-12-14T22:42:56.741Z,-7.74
2022-12-14T22:45:25.132Z,-7.86
2022-12-14T22:47:53.387Z,-7.87
2022-12-14T22:50:21.807Z,-7.89
2022-12-14T22:52:50.294Z,-7.95
2022-12-14T22:55:20.082Z,-7.87
2022-12-14T22:57:48.740Z,-7.81
2022-12-14T23:00:18.010Z,-7.86
2022-12-14T23:03:00.544Z,-7.90
2022-12-14T23:05:29.545Z,-7.95
2022-12-14T23:07:58.209Z,-7.94
2022-12-14T23:10:45.545Z,-7.92
2022-12-14T23:13:36.249Z,-7.93
2022-12-14T23:16:22.832Z,-7.94
2022-12-14T23:19:09.733Z,-7.99
2022-12-14T23:21:56.603Z,-7.99
2022-12-14T23:24:42.642Z,-7.92
2022-12-14T23:27:30.589Z,-7.99
2022-12-14T23:30:16.736Z,-7.95
2022-12-14T23:33:02.522Z,-7.95
2022-12-14T23:35:48.250Z,-7.98
2022-12-14T23:38:34.625Z,-8.03
2022-12-14T23:41:20.751Z,-7.99
2022-12-14T23:44:08.171Z,-7.97
2022-12-14T23:46:54.424Z,-7.86
2022-12-14T23:49:43.507Z,-7.94
2022-12-14T23:52:30.131Z,-8.01
2022-12-14T23:55:16.330Z,-8.05
2022-12-14T23:58:02.016Z,-7.97
